Arnold, Michigan
Current Conditions -  °F | °C
As of 1:36 AM on Thursday 27 Nov 2014 (Local Time) from KSAW Reporting Station
Light Snow Light Snow  
Wind Chill:   Ceiling: 3100
Heat Index: 19°   Visibility: 7mi
Dew Point: 15°   Wind: 14mph
Humidity: 83%   Direction: 350°N
Pressure: 30.17"   Gusts: 21mph
Location:  46.05°N, 87.49°W
Report Text: KSAW 270636Z AUTO 35012G18KT 7SM -SN BKN031 OVC043 M07/M10 A3017 RMK AO2 T10731097
Loading
Personal Weather Stations






























Interactive Weather Map New forecast layout! Learn more

10-Day Weather Forecast

Advertisements
Track Severe Weather on mobile